Time;durP1;ratioP1;P1;durP2;ratioP2;P2;SDS_P1;SDS_P2;PMS_P1;PMS_P2;Temp;Humidity;BMP_temperature;BMP_pressure;BME280_temperature;BME280_humidity;BME280_pressure;Samples;Min_cycle;Max_cycle;Signal;HPM_P1;HPM_P2
2023/03/07 00:00:21;;;;;;;16.75;11.07;;;;;;;4.22;80.93;96954.81;4184921;28;20221;-84
2023/03/07 00:02:24;;;;;;;21.30;11.90;;;;;;;4.22;81.24;96944.50;4183977;28;20225;-84
2023/03/07 00:04:28;;;;;;;17.15;10.70;;;;;;;4.24;81.05;96956.38;4185698;28;20606;-84
2023/03/07 00:06:31;;;;;;;16.52;10.13;;;;;;;4.26;80.30;96951.94;4187432;28;20683;-85
2023/03/07 00:08:35;;;;;;;16.75;9.98;;;;;;;4.29;81.08;96956.09;4185308;28;20317;-84
2023/03/07 00:10:38;;;;;;;17.20;11.45;;;;;;;4.30;80.87;96957.75;4180684;28;20297;-85
2023/03/07 00:12:41;;;;;;;15.45;10.23;;;;;;;4.28;80.98;96955.28;4166278;28;20225;-84
2023/03/07 00:14:45;;;;;;;15.90;10.45;;;;;;;4.27;81.58;96953.63;4187311;28;20304;-84
2023/03/07 00:16:50;;;;;;;16.13;10.30;;;;;;;4.30;81.51;96957.75;4184569;28;20201;-85
2023/03/07 00:18:53;;;;;;;16.45;10.77;;;;;;;4.29;80.94;96956.91;4182670;28;20203;-84
2023/03/07 00:20:59;;;;;;;16.38;10.57;;;;;;;4.32;80.05;96953.34;4165158;28;24757;-85
2023/03/07 00:23:03;;;;;;;16.02;10.23;;;;;;;4.32;80.47;96951.56;4188262;28;20232;-85
2023/03/07 00:25:07;;;;;;;18.02;10.82;;;;;;;4.36;80.88;96954.78;4185725;28;20201;-84
2023/03/07 00:27:10;;;;;;;17.85;10.30;;;;;;;4.34;80.21;96949.72;4175910;28;20638;-85
2023/03/07 00:29:13;;;;;;;19.48;11.38;;;;;;;4.40;79.97;96953.66;4189022;28;20255;-84
2023/03/07 00:31:19;;;;;;;17.05;11.13;;;;;;;4.37;80.31;96949.53;4206520;28;20288;-85
2023/03/07 00:33:22;;;;;;;15.88;10.20;;;;;;;4.37;80.32;96944.34;4184581;28;20255;-85
2023/03/07 00:35:25;;;;;;;15.35;10.60;;;;;;;4.38;80.49;96940.06;4191432;28;20668;-85
2023/03/07 00:37:29;;;;;;;16.13;11.25;;;;;;;4.40;80.96;96933.03;4186183;28;20635;-85
2023/03/07 00:39:32;;;;;;;18.33;10.82;;;;;;;4.37;80.86;96935.81;4189033;28;20354;-85
2023/03/07 00:41:35;;;;;;;16.77;10.57;;;;;;;4.39;79.98;96939.94;4176523;28;20241;-84
2023/03/07 00:43:38;;;;;;;17.50;11.23;;;;;;;4.38;80.80;96929.72;4189224;28;20278;-84
2023/03/07 00:45:41;;;;;;;17.40;10.63;;;;;;;4.41;79.32;96937.28;4189170;28;20205;-84
2023/03/07 00:47:49;;;;;;;15.20;10.40;;;;;;;4.42;79.14;96932.03;4206710;28;20709;-85
2023/03/07 00:49:52;;;;;;;17.52;11.05;;;;;;;4.42;80.00;96926.88;4206216;28;20271;-85
2023/03/07 00:51:55;;;;;;;17.48;10.65;;;;;;;4.40;80.08;96928.69;4176427;28;20797;-85
2023/03/07 00:53:59;;;;;;;16.05;10.35;;;;;;;4.43;79.01;96922.50;4191562;28;20261;-84
2023/03/07 00:56:05;;;;;;;14.63;10.13;;;;;;;4.46;79.63;96923.13;4192017;28;20239;-85
2023/03/07 00:58:08;;;;;;;15.73;10.50;;;;;;;4.43;78.75;96920.75;4189454;28;20219;-84
2023/03/07 01:00:12;;;;;;;14.13;10.13;;;;;;;4.40;79.00;96909.81;4188022;28;20218;-85
2023/03/07 01:02:15;;;;;;;16.52;10.38;;;;;;;4.42;79.63;96910.53;4192630;28;20301;-84
2023/03/07 01:04:20;;;;;;;16.00;10.38;;;;;;;4.39;79.16;96910.72;4187958;28;20297;-84
2023/03/07 01:06:25;;;;;;;16.10;9.82;;;;;;;4.38;78.80;96909.09;4187636;28;20686;-85
2023/03/07 01:08:29;;;;;;;15.65;10.00;;;;;;;4.41;79.68;96912.28;4186798;28;20308;-84
2023/03/07 01:10:33;;;;;;;17.33;10.57;;;;;;;4.40;79.28;96908.03;4223615;27;20204;-84
2023/03/07 01:12:36;;;;;;;16.88;10.45;;;;;;;4.45;79.24;96905.16;4169489;28;20209;-84
2023/03/07 01:14:39;;;;;;;14.75;9.25;;;;;;;4.48;79.52;96904.97;4181287;28;20216;-84
2023/03/07 01:16:42;;;;;;;15.60;10.30;;;;;;;4.46;78.93;96902.50;4189764;28;20209;-84
2023/03/07 01:18:49;;;;;;;16.17;10.70;;;;;;;4.45;77.96;96906.03;4195404;28;20210;-84
2023/03/07 01:20:54;;;;;;;15.48;10.68;;;;;;;4.48;78.53;96902.41;4208648;28;20221;-84
2023/03/07 01:22:57;;;;;;;16.45;10.43;;;;;;;4.49;78.78;96904.88;4219635;28;20230;-84
2023/03/07 01:25:00;;;;;;;16.35;11.25;;;;;;;4.49;78.95;96904.88;4205954;28;20207;-84
2023/03/07 01:27:04;;;;;;;15.60;10.45;;;;;;;4.47;78.43;96900.75;4222276;28;20237;-84
2023/03/07 01:29:08;;;;;;;13.48;8.95;;;;;;;4.50;79.02;96905.72;4195074;28;20282;-84
2023/03/07 01:31:12;;;;;;;15.52;10.05;;;;;;;4.51;78.56;96903.06;4189974;28;20284;-84
2023/03/07 01:33:16;;;;;;;14.65;9.52;;;;;;;4.50;77.90;96893.66;4184957;28;20216;-84
2023/03/07 01:35:19;;;;;;;14.05;9.90;;;;;;;4.52;78.69;96896.94;4172777;28;20210;-84
2023/03/07 01:37:24;;;;;;;15.48;10.35;;;;;;;4.51;78.82;96899.63;4169484;28;20277;-84
2023/03/07 01:39:27;;;;;;;14.57;10.35;;;;;;;4.51;79.21;96891.88;4183489;28;20296;-84
2023/03/07 01:41:37;;;;;;;16.38;10.55;;;;;;;4.52;78.35;96899.53;4190091;28;20754;-84
2023/03/07 01:43:43;;;;;;;16.00;9.82;;;;;;;4.50;77.64;96896.22;4189450;28;20222;-84
2023/03/07 01:46:29;;;;;;;17.33;9.63;;;;;;;4.51;78.75;96900.47;4200185;28;20204;-85
2023/03/07 01:48:32;;;;;;;15.35;9.70;;;;;;;4.50;78.96;96895.41;4188311;28;20205;-84
2023/03/07 01:50:35;;;;;;;15.63;10.30;;;;;;;4.52;78.44;96893.56;4189703;28;20542;-84
2023/03/07 01:52:42;;;;;;;15.23;9.35;;;;;;;4.50;78.59;96892.81;4205554;28;20207;-84
2023/03/07 01:54:49;;;;;;;14.63;9.68;;;;;;;4.44;79.22;96883.72;4177410;28;20200;-84
2023/03/07 01:56:55;;;;;;;15.60;10.23;;;;;;;4.43;78.65;96884.63;4191533;28;20306;-84
2023/03/07 01:58:58;;;;;;;17.95;10.18;;;;;;;4.43;78.37;96883.81;4188370;28;20208;-84
2023/03/07 02:01:01;;;;;;;13.38;9.40;;;;;;;4.40;79.59;96877.06;4188946;28;20255;-84
2023/03/07 02:03:10;;;;;;;15.40;10.27;;;;;;;4.39;79.24;96874.59;4200856;28;24599;-84
2023/03/07 02:05:20;;;;;;;15.60;10.00;;;;;;;4.35;79.09;96876.56;4206013;28;20262;-84
2023/03/07 02:07:25;;;;;;;15.35;10.45;;;;;;;4.36;79.08;96875.63;4173485;28;20234;-84
2023/03/07 02:09:32;;;;;;;17.55;10.38;;;;;;;4.46;79.68;96875.88;4180976;28;20804;-84
2023/03/07 02:11:35;;;;;;;17.88;10.30;;;;;;;4.47;79.00;96868.03;4193265;28;20200;-84
2023/03/07 02:13:39;;;;;;;16.20;9.50;;;;;;;4.45;79.59;96875.06;4168659;28;20225;-84
2023/03/07 02:15:42;;;;;;;15.27;9.50;;;;;;;4.42;78.63;96864.06;4176889;28;20209;-84
2023/03/07 02:17:46;;;;;;;15.65;9.65;;;;;;;4.40;77.91;96863.34;4189892;28;20288;-84
2023/03/07 02:19:58;;;;;;;16.10;10.55;;;;;;;4.34;78.75;96854.25;4189719;28;20205;-84
2023/03/07 02:22:09;;;;;;;15.77;10.15;;;;;;;4.32;78.52;96856.09;4221795;27;20714;-84
2023/03/07 02:24:18;;;;;;;16.05;10.55;;;;;;;4.32;78.02;96850.94;4186881;28;20606;-84
2023/03/07 02:26:30;;;;;;;14.82;9.50;;;;;;;4.41;77.92;96855.53;4203453;28;20240;-84
2023/03/07 02:28:35;;;;;;;13.45;9.23;;;;;;;4.41;77.94;96855.53;4188744;28;20713;-84
2023/03/07 02:30:38;;;;;;;17.25;9.13;;;;;;;4.39;79.19;96859.13;4181744;28;20204;-84
2023/03/07 02:32:41;;;;;;;13.95;9.32;;;;;;;4.41;78.66;96854.69;4218129;28;20672;-84
2023/03/07 02:34:44;;;;;;;15.82;9.98;;;;;;;4.42;78.81;96853.75;4186714;28;20206;-84
2023/03/07 02:36:54;;;;;;;16.83;10.77;;;;;;;4.47;77.92;96854.31;4172156;28;20218;-84
2023/03/07 02:38:58;;;;;;;18.25;10.32;;;;;;;4.47;78.36;96862.88;4193223;28;20639;-84
2023/03/07 02:41:02;;;;;;;17.25;10.18;;;;;;;4.49;78.30;96857.59;4218100;28;20923;-84
2023/03/07 02:43:08;;;;;;;16.80;11.23;;;;;;;4.47;77.90;96862.06;4167870;28;20757;-84
2023/03/07 02:45:17;;;;;;;18.42;10.88;;;;;;;4.54;77.65;96858.13;4201965;28;20243;-84
2023/03/07 02:47:21;;;;;;;15.05;9.85;;;;;;;4.57;78.25;96853.63;4174950;28;20222;-83
2023/03/07 02:49:24;;;;;;;16.50;10.35;;;;;;;4.62;76.72;96854.16;4171653;28;20222;-83
2023/03/07 02:51:27;;;;;;;18.40;10.75;;;;;;;4.40;79.04;96843.53;4185411;28;20206;-83
2023/03/07 02:53:31;;;;;;;17.33;10.55;;;;;;;4.39;79.44;96841.91;4184108;28;20201;-83
2023/03/07 02:55:34;;;;;;;15.40;10.95;;;;;;;4.34;79.71;96846.50;4191851;28;20292;-83
2023/03/07 02:57:39;;;;;;;16.35;11.15;;;;;;;4.32;80.14;96840.63;4172101;28;20214;-84
2023/03/07 02:59:42;;;;;;;15.52;10.52;;;;;;;4.35;80.17;96843.00;4182613;28;20208;-83
2023/03/07 03:01:47;;;;;;;16.45;10.57;;;;;;;4.42;80.07;96846.00;4188345;28;20218;-83
2023/03/07 03:03:50;;;;;;;18.98;10.50;;;;;;;4.36;79.87;96842.09;4183858;28;20213;-83
2023/03/07 03:05:54;;;;;;;19.38;10.75;;;;;;;4.28;80.16;96836.59;4185699;28;20201;-83
2023/03/07 03:07:57;;;;;;;18.65;10.85;;;;;;;4.24;81.25;96839.47;4185973;28;20263;-83
2023/03/07 03:10:00;;;;;;;16.80;10.93;;;;;;;4.23;80.71;96838.63;4183780;28;20201;-83
2023/03/07 03:12:05;;;;;;;21.83;12.45;;;;;;;4.22;80.90;96831.00;4185162;28;20233;-83
2023/03/07 03:14:09;;;;;;;21.13;12.18;;;;;;;4.20;81.61;96826.88;4183214;28;20244;-83
2023/03/07 03:16:12;;;;;;;19.00;11.80;;;;;;;4.20;82.08;96829.44;4198363;28;20216;-83
2023/03/07 03:18:17;;;;;;;21.63;12.55;;;;;;;4.16;81.97;96822.81;4210055;28;20201;-83
2023/03/07 03:20:21;;;;;;;20.45;13.32;;;;;;;4.14;82.48;96824.69;4165967;28;20515;-83
2023/03/07 03:22:24;;;;;;;21.00;11.82;;;;;;;4.18;82.35;96821.81;4185719;28;20251;-84
2023/03/07 03:24:27;;;;;;;18.63;11.15;;;;;;;4.20;82.05;96817.38;4170677;28;20296;-84
2023/03/07 03:26:31;;;;;;;17.25;11.18;;;;;;;4.21;81.83;96822.44;4190186;28;20598;-83
2023/03/07 03:28:35;;;;;;;16.13;10.20;;;;;;;4.22;81.90;96821.53;4183882;28;20214;-84
2023/03/07 03:30:39;;;;;;;17.65;11.35;;;;;;;4.24;82.63;96827.41;4175201;28;20198;-84
2023/03/07 03:32:42;;;;;;;17.70;9.98;;;;;;;4.27;82.16;96824.63;4217089;28;20212;-84
2023/03/07 03:34:49;;;;;;;15.82;10.18;;;;;;;4.35;82.07;96818.97;4200722;28;20255;-84
2023/03/07 03:36:53;;;;;;;16.48;10.43;;;;;;;4.41;81.80;96824.56;4191701;28;20259;-84
2023/03/07 03:38:59;;;;;;;15.82;9.98;;;;;;;4.47;81.63;96823.34;4181345;28;20245;-84
2023/03/07 03:41:06;;;;;;;17.00;10.43;;;;;;;4.55;80.17;96827.06;4170580;28;20205;-84
2023/03/07 03:43:11;;;;;;;14.57;10.43;;;;;;;4.59;79.80;96825.13;4184917;28;20705;-84
2023/03/07 03:45:14;;;;;;;13.70;9.60;;;;;;;4.60;80.74;96822.44;4187910;28;20223;-84
2023/03/07 03:47:18;;;;;;;14.05;9.40;;;;;;;4.63;79.79;96822.25;4172434;28;20767;-84
2023/03/07 03:49:21;;;;;;;16.73;10.20;;;;;;;4.67;80.32;96831.44;4192115;28;20284;-84
2023/03/07 03:51:28;;;;;;;16.60;10.43;;;;;;;4.70;80.35;96826.88;4199534;28;20744;-84
2023/03/07 03:53:32;;;;;;;15.98;9.80;;;;;;;4.76;79.89;96829.06;4182377;28;20238;-84
2023/03/07 03:55:35;;;;;;;16.23;10.20;;;;;;;4.83;79.41;96825.16;4201160;28;20208;-84
2023/03/07 03:57:39;;;;;;;15.98;9.93;;;;;;;4.90;79.44;96825.56;4179722;28;20281;-84
2023/03/07 03:59:42;;;;;;;15.00;9.40;;;;;;;4.97;79.08;96819.09;4179137;28;20201;-86
2023/03/07 04:01:45;;;;;;;14.88;10.02;;;;;;;5.02;78.20;96820.44;4192074;28;20244;-86
2023/03/07 04:03:50;;;;;;;16.15;10.15;;;;;;;5.07;78.90;96820.94;4183048;28;20227;-86
2023/03/07 04:05:53;;;;;;;14.82;9.77;;;;;;;5.11;78.33;96819.78;4181512;28;20202;-86
2023/03/07 04:07:57;;;;;;;16.27;9.50;;;;;;;5.13;77.85;96824.84;4184177;28;20718;-86
2023/03/07 04:10:01;;;;;;;13.25;8.88;;;;;;;5.15;77.06;96822.06;4190726;28;20296;-84
2023/03/07 04:12:05;;;;;;;19.58;10.45;;;;;;;5.20;77.12;96820.03;4191855;28;20202;-84
2023/03/07 04:14:09;;;;;;;17.15;9.70;;;;;;;5.23;77.46;96808.63;4170491;28;20224;-84
2023/03/07 04:16:12;;;;;;;15.02;9.85;;;;;;;5.26;77.27;96811.84;4190227;28;20271;-84
2023/03/07 04:18:16;;;;;;;17.83;10.98;;;;;;;5.30;77.31;96810.69;4202435;28;20203;-84
2023/03/07 04:20:20;;;;;;;14.18;10.25;;;;;;;5.35;76.53;96805.22;4214560;28;20240;-84
2023/03/07 04:22:23;;;;;;;14.98;9.57;;;;;;;5.37;76.49;96811.94;4175968;28;20225;-84
2023/03/07 04:24:28;;;;;;;14.70;10.27;;;;;;;5.40;76.37;96803.97;4217003;28;20254;-84
2023/03/07 04:26:31;;;;;;;17.88;10.48;;;;;;;5.43;75.74;96796.00;4192634;28;20759;-86
2023/03/07 04:28:45;;;;;;;15.25;9.48;;;;;;;5.44;76.49;96802.84;4182748;28;20542;-83
2023/03/07 04:30:52;;;;;;;15.30;9.27;;;;;;;5.45;76.25;96801.91;4185484;28;20622;-84
2023/03/07 04:32:56;;;;;;;14.50;9.85;;;;;;;5.46;76.61;96793.22;4185669;28;20207;-84
2023/03/07 04:35:02;;;;;;;15.52;9.88;;;;;;;5.49;76.01;96792.16;4186115;28;20306;-84
2023/03/07 04:37:05;;;;;;;15.32;9.98;;;;;;;5.50;75.27;96788.66;4184406;28;20201;-83
2023/03/07 04:39:08;;;;;;;16.60;9.60;;;;;;;5.53;75.24;96794.44;4186319;28;20210;-84
2023/03/07 04:41:15;;;;;;;13.82;9.35;;;;;;;5.58;75.34;96791.53;4198142;28;20260;-84
2023/03/07 04:43:20;;;;;;;15.52;10.35;;;;;;;5.60;75.71;96787.91;4186568;28;20597;-84
2023/03/07 04:45:23;;;;;;;13.07;9.48;;;;;;;5.50;73.94;96793.81;4168631;28;20289;-84
2023/03/07 04:47:27;;;;;;;14.30;9.85;;;;;;;5.46;74.97;96788.06;4213787;28;20209;-83
2023/03/07 04:49:30;;;;;;;14.70;10.25;;;;;;;5.49;74.74;96780.09;4173851;28;20207;-84
2023/03/07 04:51:33;;;;;;;14.85;10.63;;;;;;;5.48;74.70;96788.75;4185754;28;20288;-84
2023/03/07 04:53:36;;;;;;;15.07;9.88;;;;;;;5.49;75.16;96777.50;4189814;28;20379;-84
2023/03/07 04:55:39;;;;;;;14.48;10.05;;;;;;;5.53;75.13;96781.50;4181545;28;20265;-83
2023/03/07 04:57:45;;;;;;;14.45;9.75;;;;;;;5.52;74.38;96774.69;4170087;28;20204;-84
2023/03/07 04:59:49;;;;;;;17.05;11.05;;;;;;;5.47;74.72;96774.16;4183087;28;20211;-84
2023/03/07 05:01:52;;;;;;;16.13;11.00;;;;;;;5.48;74.91;96775.03;4183670;28;20211;-84
2023/03/07 05:03:55;;;;;;;15.50;9.80;;;;;;;5.50;74.16;96771.38;4184478;28;20210;-84
2023/03/07 05:06:02;;;;;;;13.23;9.40;;;;;;;5.46;74.65;96764.78;4182104;28;20938;-84
2023/03/07 05:08:05;;;;;;;14.68;10.18;;;;;;;5.43;75.13;96765.00;4217191;28;20206;-84
2023/03/07 05:10:10;;;;;;;16.92;11.50;;;;;;;5.39;75.23;96763.53;4176772;28;20706;-84
2023/03/07 05:12:13;;;;;;;14.25;9.95;;;;;;;5.37;75.46;96767.19;4194776;28;20205;-83
2023/03/07 05:14:18;;;;;;;17.83;10.75;;;;;;;5.42;75.36;96762.53;4173441;28;20282;-83
2023/03/07 05:16:21;;;;;;;17.75;11.25;;;;;;;5.37;75.42;96760.25;4184238;28;20912;-84
2023/03/07 05:18:25;;;;;;;14.20;10.23;;;;;;;5.35;75.50;96761.28;4187760;28;20212;-84
2023/03/07 05:20:29;;;;;;;17.85;11.20;;;;;;;5.39;74.92;96757.56;4173063;28;20260;-83
2023/03/07 05:22:35;;;;;;;17.27;10.70;;;;;;;5.36;74.79;96765.53;4172277;28;20365;-84
2023/03/07 05:24:38;;;;;;;15.50;10.27;;;;;;;5.40;75.23;96754.06;4206231;28;20296;-84
2023/03/07 05:26:42;;;;;;;16.77;10.73;;;;;;;5.39;75.20;96755.78;4187057;28;20317;-86
2023/03/07 05:28:46;;;;;;;15.93;10.30;;;;;;;5.36;75.24;96752.59;4188192;28;20293;-84
2023/03/07 05:30:50;;;;;;;17.65;11.25;;;;;;;5.35;74.44;96754.38;4175542;28;20229;-84
2023/03/07 05:32:53;;;;;;;20.55;11.30;;;;;;;5.28;74.80;96747.16;4219945;27;20321;-84
2023/03/07 05:34:56;;;;;;;15.43;10.40;;;;;;;5.13;75.13;96742.19;4205146;28;20219;-84
2023/03/07 05:37:00;;;;;;;15.98;10.57;;;;;;;5.04;75.99;96745.44;4194141;28;20548;-83
2023/03/07 05:39:04;;;;;;;16.35;10.38;;;;;;;4.92;76.17;96735.94;4192163;28;20205;-85
2023/03/07 05:41:11;;;;;;;15.77;10.20;;;;;;;4.94;76.92;96739.22;4188811;28;20209;-85
2023/03/07 05:43:15;;;;;;;15.38;9.68;;;;;;;4.91;76.75;96740.25;4172253;28;20311;-86
2023/03/07 05:45:22;;;;;;;15.88;10.25;;;;;;;4.88;77.10;96744.81;4202372;28;20728;-85
2023/03/07 05:47:26;;;;;;;14.02;9.80;;;;;;;4.75;77.20;96739.66;4189310;28;20525;-85
2023/03/07 05:49:30;;;;;;;14.75;10.57;;;;;;;4.77;77.61;96747.28;4187084;28;20208;-85
2023/03/07 05:51:35;;;;;;;14.80;9.73;;;;;;;4.80;76.93;96741.91;4190317;28;20209;-86
2023/03/07 05:53:38;;;;;;;17.85;11.55;;;;;;;4.88;76.82;96745.63;4186066;28;20703;-86
2023/03/07 05:55:41;;;;;;;17.50;10.13;;;;;;;4.98;76.42;96753.59;4191428;28;20216;-86
2023/03/07 05:57:44;;;;;;;20.40;10.50;;;;;;;5.03;76.84;96751.50;4187435;28;20296;-86
2023/03/07 05:59:48;;;;;;;17.00;9.73;;;;;;;5.05;76.93;96749.66;4187650;28;20205;-84
2023/03/07 06:01:51;;;;;;;17.02;11.13;;;;;;;5.04;76.68;96742.84;4188023;28;20400;-84
2023/03/07 06:03:56;;;;;;;15.55;10.23;;;;;;;5.09;76.19;96751.09;4198445;28;20217;-86
2023/03/07 06:06:00;;;;;;;16.40;10.52;;;;;;;5.14;76.11;96745.50;4203903;28;20311;-86
2023/03/07 06:08:04;;;;;;;14.85;9.77;;;;;;;5.18;76.25;96749.53;4179586;28;20217;-84
2023/03/07 06:10:08;;;;;;;16.45;10.18;;;;;;;5.21;75.42;96740.75;4186120;28;20229;-84
2023/03/07 06:12:11;;;;;;;26.35;11.57;;;;;;;5.26;76.26;96736.91;4204071;28;20209;-84
2023/03/07 06:14:15;;;;;;;16.98;10.35;;;;;;;5.30;75.29;96743.50;4204474;28;20212;-84
2023/03/07 06:16:18;;;;;;;17.08;11.40;;;;;;;5.28;74.61;96739.41;4187768;28;20202;-84
2023/03/07 06:18:22;;;;;;;16.25;10.60;;;;;;;5.20;75.23;96736.50;4178143;28;20211;-83
2023/03/07 06:20:26;;;;;;;20.65;11.35;;;;;;;5.18;75.63;96736.59;4172183;28;20214;-84
2023/03/07 06:22:33;;;;;;;18.63;11.15;;;;;;;5.13;74.18;96734.44;4175739;28;20260;-86
2023/03/07 06:24:45;;;;;;;16.58;10.20;;;;;;;5.13;74.65;96736.09;4189278;28;20249;-84
2023/03/07 06:26:49;;;;;;;17.40;10.55;;;;;;;5.13;74.20;96729.28;4175864;28;20768;-84
2023/03/07 06:28:55;;;;;;;18.10;9.95;;;;;;;5.18;75.15;96734.00;4190742;28;20244;-84
2023/03/07 06:31:00;;;;;;;18.05;11.63;;;;;;;5.28;75.20;96729.06;4189476;28;20689;-84
2023/03/07 06:33:04;;;;;;;13.82;10.15;;;;;;;5.32;74.76;96736.50;4189577;28;20257;-84
2023/03/07 06:35:09;;;;;;;14.52;10.43;;;;;;;5.28;74.57;96721.31;4170705;28;20210;-84
2023/03/07 06:37:14;;;;;;;18.17;11.38;;;;;;;5.24;75.06;96717.28;4205388;28;20227;-84
2023/03/07 06:39:20;;;;;;;18.55;10.82;;;;;;;5.20;74.39;96724.44;4173039;28;20210;-84
2023/03/07 06:41:27;;;;;;;15.45;10.18;;;;;;;5.19;73.90;96727.94;4169356;28;20269;-85
2023/03/07 06:43:33;;;;;;;15.40;10.50;;;;;;;5.15;75.06;96723.06;4185860;28;20312;-84
2023/03/07 06:45:37;;;;;;;18.58;10.95;;;;;;;5.10;74.78;96732.91;4183783;28;20206;-84
2023/03/07 06:47:41;;;;;;;16.75;10.25;;;;;;;5.10;75.44;96730.31;4171048;28;20203;-84
2023/03/07 06:49:45;;;;;;;17.85;10.95;;;;;;;5.11;75.19;96731.97;4186681;28;20210;-85
2023/03/07 06:51:49;;;;;;;16.70;10.80;;;;;;;5.15;74.53;96738.56;4180387;28;20225;-84
2023/03/07 06:53:53;;;;;;;19.33;10.95;;;;;;;5.17;74.75;96737.56;4183599;28;20205;-84
2023/03/07 06:55:57;;;;;;;20.25;10.55;;;;;;;5.23;73.90;96731.13;4192935;28;20237;-84
2023/03/07 06:58:00;;;;;;;15.55;10.50;;;;;;;5.26;74.76;96736.91;4169202;28;20210;-86
2023/03/07 07:00:05;;;;;;;17.30;9.73;;;;;;;5.34;73.70;96734.63;4188308;28;20292;-84
2023/03/07 07:02:10;;;;;;;17.55;10.60;;;;;;;5.41;73.82;96735.84;4201847;28;20263;-90
2023/03/07 07:04:14;;;;;;;16.98;9.90;;;;;;;5.44;73.46;96738.22;4184532;28;20230;-85
2023/03/07 07:06:18;;;;;;;16.73;10.90;;;;;;;5.50;73.61;96732.59;4181442;28;20226;-86
2023/03/07 07:08:22;;;;;;;20.58;10.45;;;;;;;5.54;73.36;96741.00;4187532;28;20202;-85
2023/03/07 07:10:27;;;;;;;14.15;9.95;;;;;;;5.58;73.92;96743.25;4215648;28;20596;-85
2023/03/07 07:12:30;;;;;;;15.48;9.77;;;;;;;5.62;73.52;96736.91;4177762;28;20230;-85
2023/03/07 07:14:34;;;;;;;16.25;10.90;;;;;;;5.60;73.16;96731.03;4187501;28;20919;-87
2023/03/07 07:16:37;;;;;;;17.33;10.63;;;;;;;5.57;73.56;96739.00;4189422;28;20241;-85
2023/03/07 07:18:41;;;;;;;17.65;10.15;;;;;;;5.58;73.33;96740.66;4200652;28;20262;-86
2023/03/07 07:20:44;;;;;;;16.80;10.35;;;;;;;5.57;73.65;96738.19;4187128;28;20292;-85
2023/03/07 07:22:47;;;;;;;15.50;9.93;;;;;;;5.60;73.58;96734.44;4186827;28;20202;-85
2023/03/07 07:24:50;;;;;;;14.10;9.25;;;;;;;5.62;73.65;96737.75;4175480;28;20718;-85
2023/03/07 07:26:55;;;;;;;13.48;9.73;;;;;;;5.57;72.81;96733.84;4218158;28;20305;-86
2023/03/07 07:28:58;;;;;;;14.90;10.48;;;;;;;5.52;73.81;96729.91;4174955;28;20217;-85
2023/03/07 07:31:02;;;;;;;15.55;10.15;;;;;;;5.48;73.55;96726.72;4172915;28;20660;-85
2023/03/07 07:33:06;;;;;;;14.95;10.23;;;;;;;5.49;73.72;96732.72;4198361;28;20209;-86
2023/03/07 07:35:10;;;;;;;17.08;10.32;;;;;;;5.39;72.55;96729.94;4203862;28;20248;-85
2023/03/07 07:37:13;;;;;;;17.85;10.40;;;;;;;5.33;73.80;96727.78;4184238;28;20293;-87
2023/03/07 07:39:16;;;;;;;14.88;10.15;;;;;;;5.33;74.04;96727.78;4186556;28;20639;-87
2023/03/07 07:41:21;;;;;;;21.63;13.77;;;;;;;5.34;74.19;96724.28;4169995;28;20202;-85
2023/03/07 07:43:29;;;;;;;14.60;9.20;;;;;;;5.24;73.18;96728.44;4184953;28;20538;-83
2023/03/07 07:45:42;;;;;;;13.68;9.07;;;;;;;5.21;73.94;96720.06;4190068;28;20683;-83
2023/03/07 07:47:50;;;;;;;16.08;10.05;;;;;;;5.21;74.43;96720.06;4188195;28;20304;-84
2023/03/07 07:49:53;;;;;;;15.05;9.82;;;;;;;5.19;74.17;96720.19;4188504;28;20707;-83
2023/03/07 07:51:57;;;;;;;16.83;10.18;;;;;;;5.16;73.99;96722.97;4178448;28;20598;-83
2023/03/07 07:54:00;;;;;;;19.38;11.52;;;;;;;5.19;75.00;96716.78;4201916;28;20265;-83
2023/03/07 07:56:03;;;;;;;14.20;9.70;;;;;;;5.16;73.84;96725.56;4164848;28;20288;-83
2023/03/07 07:58:07;;;;;;;15.10;9.35;;;;;;;5.21;73.99;96728.63;4169505;28;20211;-83
2023/03/07 08:00:18;;;;;;;12.65;8.65;;;;;;;5.32;74.13;96725.31;4182852;28;20205;-82
2023/03/07 08:02:21;;;;;;;16.73;9.90;;;;;;;5.36;74.21;96731.94;4185584;28;20209;-81
2023/03/07 08:04:24;;;;;;;13.90;9.35;;;;;;;5.37;74.75;96724.06;4178164;28;20229;-82
2023/03/07 08:06:28;;;;;;;17.25;9.98;;;;;;;5.46;74.91;96725.16;4182578;28;20229;-81
2023/03/07 08:08:31;;;;;;;13.52;9.20;;;;;;;5.57;75.16;96722.69;4186209;28;20260;-81
2023/03/07 08:10:35;;;;;;;16.90;10.32;;;;;;;5.67;75.35;96727.09;4167260;28;20202;-82
2023/03/07 08:12:38;;;;;;;13.77;10.02;;;;;;;5.69;74.10;96733.78;4183943;28;20686;-82
2023/03/07 08:14:41;;;;;;;15.20;9.35;;;;;;;5.68;74.39;96724.41;4182789;28;20210;-82
2023/03/07 08:16:46;;;;;;;13.63;9.07;;;;;;;5.67;74.39;96714.97;4186578;28;20205;-82
2023/03/07 08:18:50;;;;;;;20.58;10.75;;;;;;;5.75;74.38;96714.47;4170976;28;20222;-82
2023/03/07 08:20:53;;;;;;;13.52;8.80;;;;;;;5.83;74.88;96722.50;4182567;28;20531;-82
2023/03/07 08:22:57;;;;;;;16.58;10.63;;;;;;;5.85;74.61;96723.19;4178727;28;20261;-82
2023/03/07 08:25:00;;;;;;;12.10;8.63;;;;;;;5.89;73.68;96722.06;4184166;28;20315;-82
2023/03/07 08:27:03;;;;;;;15.70;9.23;;;;;;;5.98;73.72;96717.03;4166905;28;20642;-82
2023/03/07 08:29:07;;;;;;;14.40;9.80;;;;;;;6.05;73.31;96727.78;4183968;28;20619;-82
2023/03/07 08:31:12;;;;;;;22.30;10.05;;;;;;;6.10;74.03;96719.59;4198896;28;20819;-82
2023/03/07 08:33:16;;;;;;;14.73;9.13;;;;;;;6.06;73.64;96712.16;4170279;28;20717;-82
2023/03/07 08:35:20;;;;;;;13.65;9.52;;;;;;;6.15;73.52;96716.66;4185447;28;20208;-82
2023/03/07 08:37:23;;;;;;;14.75;10.05;;;;;;;6.21;72.70;96714.44;4194292;28;20292;-82
2023/03/07 08:39:26;;;;;;;14.50;9.90;;;;;;;6.30;73.49;96721.53;4184198;28;20207;-82
2023/03/07 08:41:29;;;;;;;18.50;10.57;;;;;;;6.25;72.47;96715.84;4180827;28;20267;-82
2023/03/07 08:43:35;;;;;;;15.27;8.85;;;;;;;6.31;73.59;96715.41;4166152;28;20211;-82
2023/03/07 08:45:40;;;;;;;14.23;9.18;;;;;;;6.31;72.26;96715.41;4189480;28;20230;-82
2023/03/07 08:47:43;;;;;;;14.35;9.45;;;;;;;6.34;72.62;96715.16;4192666;28;20210;-81
2023/03/07 08:49:48;;;;;;;12.75;8.95;;;;;;;6.40;72.00;96713.91;4188351;28;20230;-82
2023/03/07 08:51:51;;;;;;;14.15;9.27;;;;;;;6.43;71.87;96709.31;4219050;28;20209;-82
2023/03/07 08:53:54;;;;;;;13.43;8.73;;;;;;;6.54;71.75;96711.97;4189057;28;20631;-80
2023/03/07 08:55:57;;;;;;;12.35;8.65;;;;;;;6.59;71.42;96702.88;4183991;28;20225;-83
2023/03/07 08:58:00;;;;;;;13.05;9.18;;;;;;;6.70;72.00;96708.06;4190463;28;20541;-83
2023/03/07 09:00:06;;;;;;;15.85;9.70;;;;;;;6.83;72.05;96714.00;4205985;28;20262;-83
2023/03/07 09:02:10;;;;;;;13.93;8.60;;;;;;;6.94;69.89;96711.41;4187758;28;20206;-83
2023/03/07 09:04:13;;;;;;;10.18;7.65;;;;;;;7.02;70.85;96708.22;4187683;28;20202;-83
2023/03/07 09:06:19;;;;;;;11.90;8.20;;;;;;;7.16;70.47;96706.25;4189782;28;20237;-83
2023/03/07 09:08:22;;;;;;;11.98;8.23;;;;;;;7.27;70.38;96709.63;4189367;28;20201;-83
2023/03/07 09:10:26;;;;;;;12.50;8.63;;;;;;;7.36;68.60;96705.53;4185322;28;20328;-83
2023/03/07 09:12:29;;;;;;;12.43;8.38;;;;;;;7.48;69.13;96707.16;4187305;28;20216;-83
2023/03/07 09:14:32;;;;;;;11.88;8.35;;;;;;;7.48;68.60;96700.19;4187195;28;20212;-83
2023/03/07 09:16:35;;;;;;;12.40;7.75;;;;;;;7.50;67.61;96703.47;4198848;28;20221;-83
2023/03/07 09:18:39;;;;;;;11.60;8.40;;;;;;;7.65;68.46;96707.47;4179841;28;20221;-83
2023/03/07 09:20:42;;;;;;;11.50;8.20;;;;;;;7.77;67.17;96698.72;4172240;28;20217;-83
2023/03/07 09:22:46;;;;;;;12.18;8.10;;;;;;;7.74;67.40;96694.63;4190051;28;20295;-83
2023/03/07 09:24:50;;;;;;;18.13;9.18;;;;;;;7.66;66.86;96698.75;4184794;28;20256;-83
2023/03/07 09:26:53;;;;;;;11.05;7.95;;;;;;;7.58;66.76;96695.94;4168227;28;20258;-84
2023/03/07 09:28:56;;;;;;;15.70;8.77;;;;;;;7.66;67.84;96693.56;4189137;28;20211;-84
2023/03/07 09:30:59;;;;;;;12.95;8.00;;;;;;;7.78;68.56;96692.59;4201251;28;20209;-83
2023/03/07 09:33:03;;;;;;;12.45;8.30;;;;;;;7.70;67.32;96684.59;4197976;28;20225;-83
2023/03/07 09:35:06;;;;;;;11.38;8.45;;;;;;;7.64;68.51;96682.50;4191391;28;20216;-83
2023/03/07 09:37:10;;;;;;;11.80;8.20;;;;;;;7.53;67.24;96682.50;4202118;28;20570;-81
2023/03/07 09:39:15;;;;;;;12.25;8.95;;;;;;;7.54;67.38;96678.97;4189827;28;20203;-81
2023/03/07 09:41:41;;;;;;;12.20;8.63;;;;;;;7.64;68.09;96685.09;4171669;28;20270;-87